Kadoma, Japan

2:24 PM JST on August 21, 2018 (GMT +0900)
quanzhoumeixi | | Change Station

Elev 82 ft 34.69 °N, 135.52 °E | Updated 1 minute ago

Mostly Cloudy
Mostly Cloudy
98.1 °F
Feels Like 123 °F
N
4.5
Wind Variable Wind from SW
Gusts 7.4 mph

Today
High -- | Low -- °F
--% Chance of Precip.
Yesterday
High -- | Low -- °F
Precip. -- in
Pressure 29.77 in
Visibility 6.2 miles
Clouds Few 2000 ft
Few 3000 ft
Scattered Clouds 4000 ft
Mostly Cloudy 5000 ft
Heat Index 123 °F
Dew Point 82 °F
Humidity 60%
Rainfall 0.00 in
Snow Depth Not available.
5:22 AM 6:39 PM
Waxing Gibbous, 77% visible
METAR RJOO 210500Z 20006KT 150V260 9999 VCSH FEW020 FEW030CB SCT040 BKN050 32/21 Q1008 RMK 1CU020 1CB030 3CU040 5SC050 A2977 CB 15KM NE MOV N
Pressure 29.77 in
Visibility 6.2 miles
Clouds Few 2000 ft
Few 3000 ft
Scattered Clouds 4000 ft
Mostly Cloudy 5000 ft
Heat Index 123 °F
Dew Point 82 °F
Humidity 60%
Rainfall 0.00 in
Snow Depth Not available.
5:22 AM 6:39 PM
Waxing Gibbous, 77% visible
METAR RJOO 210500Z 20006KT 150V260 9999 VCSH FEW020 FEW030CB SCT040 BKN050 32/21 Q1008 RMK 1CU020 1CB030 3CU040 5SC050 A2977 CB 15KM NE MOV N

Get Severe Weather Alerts

Thanks for signing up!

Be on the lookout for a verification email in your inbox.

You'll start receiving the daily forecast at 6 AM.

×

10-Day Weather Forecast

No radar image for this location.
×

Almanac

Astronomy

Aug. 21, 2018 Rise Set
Actual Time
Civil Twilight
Nautical Twilight
Astronomical Twilight
Moon
Length of Visible Light
Length of Day
Tomorrow will be .
, % of the Moon is Illuminated

Today's Extremes

Country Highs Country Lows

Community

WunderPhotos

Category 6

Welcome to Category 6. This is the collective home for Weather Underground's featured writeups by Dr. Jeff Masters (right), Bob Henson (left), Chris Burt, and other regular contributors.

Nearby

Air Quality

  Air Quality AQ Index Pollutant
Not available.

Snow Depth

Station Depth Elevation

Earthquake Activity

City Distance Mag. Time & Date
Minimum magnitude displayed is 2.5.

Coastal Water Temperatures

Place Temperature

Stations

Nearby Weather Stations

Station Location Temp. Windchill Dew Point Humidity Wind Precip. Elev Updated Type